Overbrook, New Jersey
Current Conditions -  °F | °C
As of 1:53 AM on Sunday 21 Dec 2014 (Local Time) from KCDW Reporting Station
Overcast Overcast  
Wind Chill: 30°   Ceiling: 2400
Heat Index: 30°   Visibility: 10mi
Dew Point: 23°   Wind: 0mph
Humidity: 75%   Direction: NA
Pressure: 30.29"   Gusts: NA
Location:  40.8566°N, 74.2292°W
Report Text: KCDW 210653Z AUTO 00000KT 10SM OVC024 M01/M05 A3029 RMK AO2 SLP263 T10111050 TSNO
Loading
Personal Weather Stations






























Interactive Weather Map New forecast layout! Learn more

10-Day Weather Forecast

Advertisements
Track Severe Weather on mobile